Terminal Aerodrome Forecast
Issued by NWS

Home | Current Version | Previous Version | Text Only | Print | Product List | Glossary On
Versions: 1 2 3 4 5 6 7 8 9 10 11 12 13 14 15 16 17 18
000
FTUS46 KSEW 251120
TAFCLM
TAF
KCLM 251120Z 2512/2612 25005KT P6SM -RA BKN060 OVC100
     FM251400 27004KT P6SM -RA SCT025 BKN050 OVC070
     FM252100 VRB04KT P6SM BKN030 OVC050=

USA.gov is the U.S. government's official web portal to all federal, state and local government web resources and services.